Time;durP1;ratioP1;P1;durP2;ratioP2;P2;SDS_P1;SDS_P2;PMS_P1;PMS_P2;Temp;Humidity;BMP_temperature;BMP_pressure;BME280_temperature;BME280_humidity;BME280_pressure;Samples;Min_cycle;Max_cycle;Signal;HPM_P1;HPM_P2
2022/12/12 00:01:35;;;;;;;15.75;11.73;;;4.20;99.90;;;;;;4995945;28;20661;-80
2022/12/12 00:04:01;;;;;;;14.77;11.20;;;4.20;99.90;;;;;;4996226;28;20185;-80
2022/12/12 00:06:27;;;;;;;18.33;13.50;;;4.20;99.90;;;;;;5013765;28;20285;-80
2022/12/12 00:08:54;;;;;;;14.85;10.65;;;4.30;99.90;;;;;;5013475;28;20277;-80
2022/12/12 00:11:21;;;;;;;15.77;12.45;;;4.30;99.90;;;;;;5000191;28;20170;-80
2022/12/12 00:13:47;;;;;;;18.30;13.07;;;4.30;99.90;;;;;;5013636;28;20178;-80
2022/12/12 00:16:13;;;;;;;14.73;11.32;;;4.30;99.90;;;;;;4979499;28;20206;-80
2022/12/12 00:18:39;;;;;;;18.40;12.68;;;4.30;99.90;;;;;;4996284;28;20625;-80
2022/12/12 00:21:13;;;;;;;16.92;14.00;;;4.30;99.90;;;;;;5001877;28;20594;-79
2022/12/12 00:23:38;;;;;;;15.50;11.82;;;4.20;99.90;;;;;;5001134;28;20182;-80
2022/12/12 00:26:07;;;;;;;16.40;12.97;;;4.30;99.90;;;;;;5007482;28;20193;-80
2022/12/12 00:28:33;;;;;;;15.82;12.70;;;4.30;99.90;;;;;;5006726;28;20635;-80
2022/12/12 00:30:59;;;;;;;15.63;12.73;;;4.40;99.90;;;;;;5014929;28;20181;-80
2022/12/12 00:33:25;;;;;;;13.87;10.40;;;4.40;99.90;;;;;;5035924;28;21139;-80
2022/12/12 00:35:52;;;;;;;15.40;11.17;;;4.50;99.90;;;;;;5033643;28;20704;-80
2022/12/12 00:38:20;;;;;;;14.60;11.50;;;4.50;99.90;;;;;;5018264;28;20696;-80
2022/12/12 00:40:47;;;;;;;17.08;11.50;;;4.50;99.90;;;;;;5016045;28;20589;-80
2022/12/12 00:43:13;;;;;;;16.52;12.10;;;4.50;99.90;;;;;;5031563;28;20661;-80
2022/12/12 00:45:38;;;;;;;16.27;11.75;;;4.50;99.90;;;;;;5033162;28;20194;-80
2022/12/12 00:48:05;;;;;;;15.00;10.70;;;4.60;99.90;;;;;;5036614;28;20185;-80
2022/12/12 00:50:33;;;;;;;16.63;11.70;;;4.60;99.90;;;;;;5033161;28;20304;-79
2022/12/12 00:52:58;;;;;;;12.95;9.38;;;4.60;99.90;;;;;;5014658;28;20185;-80
2022/12/12 00:55:25;;;;;;;14.27;10.57;;;4.60;99.90;;;;;;5031411;28;20194;-80
2022/12/12 00:57:51;;;;;;;16.05;11.48;;;4.60;99.90;;;;;;5031445;28;20746;-80
2022/12/12 01:00:18;;;;;;;13.85;10.20;;;4.60;99.90;;;;;;5033662;28;20253;-79
2022/12/12 01:02:44;;;;;;;14.30;11.10;;;4.60;99.90;;;;;;5040862;28;20180;-79
2022/12/12 01:05:10;;;;;;;13.90;10.80;;;4.60;99.90;;;;;;5016064;28;20197;-79
2022/12/12 01:07:36;;;;;;;13.80;10.45;;;4.60;99.90;;;;;;5034278;28;20272;-80
2022/12/12 01:10:04;;;;;;;14.15;10.73;;;4.60;99.90;;;;;;5015574;28;20204;-80
2022/12/12 01:12:31;;;;;;;15.00;10.82;;;4.60;99.90;;;;;;5032905;28;20232;-80
2022/12/12 01:14:57;;;;;;;13.15;9.85;;;4.60;99.90;;;;;;5014630;28;20289;-80
2022/12/12 01:17:22;;;;;;;12.93;9.20;;;4.60;99.90;;;;;;5031750;28;20205;-79
2022/12/12 01:19:48;;;;;;;13.50;10.50;;;4.60;99.90;;;;;;5014363;28;20202;-79
2022/12/12 01:22:14;;;;;;;15.87;11.00;;;4.60;99.90;;;;;;5030849;28;20599;-80
2022/12/12 01:24:39;;;;;;;14.47;9.70;;;4.60;99.90;;;;;;5035450;28;20184;-80
2022/12/12 01:27:05;;;;;;;14.03;10.70;;;4.70;99.90;;;;;;5014998;28;20204;-80
2022/12/12 01:29:33;;;;;;;14.50;9.70;;;4.60;99.90;;;;;;5017139;28;20217;-79
2022/12/12 01:31:58;;;;;;;12.43;9.23;;;4.60;99.90;;;;;;5012035;28;20271;-79
2022/12/12 01:34:24;;;;;;;14.40;10.27;;;4.70;99.90;;;;;;4994869;28;20580;-80
2022/12/12 01:36:50;;;;;;;14.97;9.97;;;4.70;99.90;;;;;;5012291;28;20272;-80
2022/12/12 01:39:15;;;;;;;14.67;10.87;;;4.70;99.90;;;;;;4994790;28;20588;-79
2022/12/12 01:41:42;;;;;;;12.93;10.00;;;4.60;99.90;;;;;;5010782;28;20182;-79
2022/12/12 01:44:43;;;;;;;11.00;9.00;;;4.70;99.90;;;;;;4994917;28;20196;-79
2022/12/12 01:47:12;;;;;;;11.93;9.35;;;4.70;99.90;;;;;;4995107;28;20181;-79
2022/12/12 01:49:39;;;;;;;12.45;8.70;;;4.70;99.90;;;;;;4994607;28;20198;-79
2022/12/12 01:52:10;;;;;;;12.13;9.43;;;4.60;99.90;;;;;;4977785;28;20174;-79
2022/12/12 01:54:41;;;;;;;12.77;8.90;;;4.60;99.90;;;;;;5011638;28;20209;-79
2022/12/12 01:57:14;;;;;;;13.30;8.77;;;4.60;99.90;;;;;;5011724;28;20640;-79
2022/12/12 01:59:41;;;;;;;12.40;9.40;;;4.50;99.90;;;;;;4977459;28;20656;-79
2022/12/12 02:02:08;;;;;;;9.05;7.40;;;4.40;99.90;;;;;;4998055;28;20694;-79
2022/12/12 02:04:34;;;;;;;9.98;6.85;;;4.40;99.90;;;;;;4994724;28;20632;-79
2022/12/12 02:07:01;;;;;;;12.60;9.55;;;4.30;99.90;;;;;;4977961;28;20209;-79
2022/12/12 02:09:27;;;;;;;12.73;8.23;;;4.20;99.90;;;;;;4993842;28;20692;-79
2022/12/12 02:11:55;;;;;;;10.93;7.63;;;4.20;99.90;;;;;;4993406;28;20202;-80
2022/12/12 02:14:34;;;;;;;12.43;8.88;;;4.20;99.90;;;;;;4993630;28;20173;-78
2022/12/12 02:17:12;;;;;;;14.65;8.82;;;4.10;99.90;;;;;;4994314;28;20181;-79
2022/12/12 02:19:53;;;;;;;11.35;8.38;;;4.10;99.90;;;;;;4977214;28;20178;-79
2022/12/12 02:22:28;;;;;;;12.95;8.82;;;4.20;99.90;;;;;;4993893;28;20170;-79
2022/12/12 02:25:22;;;;;;;10.30;8.45;;;4.20;99.90;;;;;;4993545;28;20244;-79
2022/12/12 02:28:45;;;;;;;12.30;9.40;;;4.20;99.90;;;;;;5011305;28;20539;-79
2022/12/12 02:31:40;;;;;;;10.02;6.95;;;4.20;99.90;;;;;;4931070;29;20219;-79
2022/12/12 02:34:26;;;;;;;14.82;9.82;;;4.20;99.90;;;;;;4915593;29;20204;-79
2022/12/12 02:37:22;;;;;;;8.40;7.50;;;4.20;99.90;;;;;;5005942;28;20822;-79
2022/12/12 02:40:03;;;;;;;10.88;8.05;;;4.20;99.90;;;;;;5015569;28;20173;-79
2022/12/12 02:43:05;;;;;;;11.88;7.75;;;4.20;99.90;;;;;;4994205;28;20578;-79
2022/12/12 02:45:39;;;;;;;10.27;6.88;;;4.20;99.90;;;;;;4994235;28;20204;-79
2022/12/12 02:48:21;;;;;;;12.05;8.07;;;4.20;99.90;;;;;;4978864;28;20253;-79
2022/12/12 02:50:50;;;;;;;12.57;8.18;;;4.20;99.90;;;;;;5011401;28;20202;-79
2022/12/12 02:53:21;;;;;;;12.77;8.90;;;4.10;99.90;;;;;;4995064;28;20253;-79
2022/12/12 02:55:48;;;;;;;12.98;8.43;;;4.10;99.90;;;;;;4994890;28;20205;-79
2022/12/12 02:58:16;;;;;;;11.23;8.18;;;4.10;99.90;;;;;;4993585;28;20181;-79
2022/12/12 03:01:10;;;;;;;10.85;8.15;;;4.10;99.90;;;;;;4994335;28;20233;-79
2022/12/12 03:10:02;;;;;;;9.95;6.85;;;4.00;99.90;;;;;;4994562;28;20214;-78
2022/12/12 03:12:34;;;;;;;10.50;6.95;;;4.00;99.90;;;;;;4994725;28;20170;-79
2022/12/12 03:15:13;;;;;;;9.90;6.88;;;4.00;99.90;;;;;;5011243;28;20214;-79
2022/12/12 03:17:49;;;;;;;11.02;7.03;;;3.90;99.90;;;;;;5014416;28;20177;-79
2022/12/12 03:20:43;;;;;;;9.02;6.35;;;3.80;99.90;;;;;;4992631;28;20181;-79
2022/12/12 03:23:34;;;;;;;9.32;6.97;;;3.70;99.90;;;;;;4991836;28;20201;-79
2022/12/12 03:26:11;;;;;;;9.40;6.40;;;3.70;99.90;;;;;;4993119;28;20202;-80
2022/12/12 03:29:07;;;;;;;9.73;6.90;;;3.70;99.90;;;;;;4993037;28;20177;-79
2022/12/12 03:31:36;;;;;;;9.48;6.70;;;3.70;99.90;;;;;;4978028;28;20260;-79
2022/12/12 03:34:07;;;;;;;7.65;6.30;;;3.70;99.90;;;;;;4993330;28;20557;-80
2022/12/12 03:36:42;;;;;;;11.80;6.35;;;3.60;99.90;;;;;;4994216;28;20515;-79
2022/12/12 03:39:25;;;;;;;8.35;5.68;;;3.60;99.90;;;;;;4993529;28;20173;-79
2022/12/12 03:41:58;;;;;;;8.90;6.85;;;3.50;99.90;;;;;;4993998;28;20178;-80
2022/12/12 03:44:34;;;;;;;8.77;6.10;;;3.50;99.90;;;;;;5011899;28;20162;-80
2022/12/12 03:47:13;;;;;;;9.85;5.65;;;3.40;99.90;;;;;;5010942;28;20174;-79
2022/12/12 03:49:45;;;;;;;7.68;5.55;;;3.40;99.90;;;;;;5009413;28;20197;-79
2022/12/12 03:52:23;;;;;;;12.90;5.93;;;3.40;99.90;;;;;;4992011;28;20257;-79
2022/12/12 03:55:07;;;;;;;8.75;5.85;;;3.40;99.90;;;;;;5015016;28;20248;-79
2022/12/12 03:57:46;;;;;;;7.70;5.30;;;3.40;99.90;;;;;;5009953;28;20206;-79
2022/12/12 04:00:14;;;;;;;12.20;6.75;;;3.40;99.90;;;;;;4991680;28;20185;-79
2022/12/12 04:02:50;;;;;;;8.93;6.07;;;3.40;99.90;;;;;;4992113;28;20270;-78
2022/12/12 04:06:25;;;;;;;6.75;5.25;;;3.40;99.90;;;;;;4992017;28;20189;-79
2022/12/12 04:08:28;;;;;;;9.45;5.57;;;3.40;99.90;;;;;;4991896;28;20181;-79
2022/12/12 04:14:18;;;;;;;7.95;5.45;;;3.40;99.90;;;;;;5009892;28;20245;-79
2022/12/12 04:16:45;;;;;;;7.18;5.70;;;3.30;99.90;;;;;;5008336;28;20352;-79
2022/12/12 04:28:32;;;;;;;7.43;5.55;;;3.30;99.90;;;;;;4993103;28;20183;-79
2022/12/12 04:31:02;;;;;;;9.25;5.75;;;3.30;99.90;;;;;;5012700;28;20234;-79
2022/12/12 04:33:37;;;;;;;6.05;4.70;;;3.30;99.90;;;;;;4992894;28;20166;-79
2022/12/12 04:36:07;;;;;;;12.95;6.30;;;3.20;99.90;;;;;;4995779;28;20602;-79
2022/12/12 04:38:34;;;;;;;10.38;5.65;;;3.10;99.90;;;;;;5014126;28;20198;-79
2022/12/12 04:41:01;;;;;;;8.77;5.43;;;3.10;99.90;;;;;;4996229;28;20209;-79
2022/12/12 04:43:33;;;;;;;10.68;5.38;;;3.10;99.90;;;;;;4996216;28;20174;-79
2022/12/12 04:46:12;;;;;;;7.03;4.95;;;3.10;99.90;;;;;;5013874;28;20194;-79
2022/12/12 04:48:45;;;;;;;10.80;5.45;;;3.10;99.90;;;;;;4980290;28;20202;-79
2022/12/12 04:51:16;;;;;;;8.15;5.30;;;3.00;99.90;;;;;;4995267;28;20262;-79
2022/12/12 04:53:51;;;;;;;5.47;4.50;;;3.00;99.90;;;;;;4992307;28;20178;-79
2022/12/12 04:56:22;;;;;;;7.63;5.47;;;3.00;99.90;;;;;;4976087;28;20237;-79
2022/12/12 04:58:48;;;;;;;8.77;5.70;;;2.90;99.90;;;;;;4975912;28;20194;-79
2022/12/12 05:01:16;;;;;;;7.17;4.80;;;2.90;99.90;;;;;;4976742;28;20679;-80
2022/12/12 05:04:07;;;;;;;7.70;5.35;;;2.90;99.90;;;;;;5008704;28;20654;-80
2022/12/12 05:06:46;;;;;;;8.65;5.22;;;2.90;99.90;;;;;;4975883;28;20234;-80
2022/12/12 05:09:14;;;;;;;9.73;5.10;;;2.90;99.90;;;;;;4996085;28;20201;-75
2022/12/12 05:11:41;;;;;;;8.00;4.97;;;2.90;99.90;;;;;;4975151;28;20175;-75
2022/12/12 05:14:14;;;;;;;8.73;5.22;;;2.80;99.90;;;;;;4992805;28;20182;-74
2022/12/12 05:16:50;;;;;;;8.40;4.93;;;2.80;99.90;;;;;;4975105;28;20226;-75
2022/12/12 05:19:16;;;;;;;7.70;4.72;;;2.80;99.90;;;;;;4992262;28;20175;-75
2022/12/12 05:21:42;;;;;;;10.33;6.63;;;2.90;99.90;;;;;;4974825;28;20179;-75
2022/12/12 05:24:07;;;;;;;8.60;5.03;;;2.90;99.90;;;;;;4992763;28;20582;-75
2022/12/12 05:26:34;;;;;;;9.80;5.97;;;2.90;99.90;;;;;;4975134;28;20198;-75
2022/12/12 05:29:01;;;;;;;8.07;5.68;;;2.80;99.90;;;;;;4974464;28;20206;-75
2022/12/12 05:31:26;;;;;;;13.68;6.30;;;2.80;99.90;;;;;;4992312;28;21045;-75
2022/12/12 05:33:53;;;;;;;8.10;5.60;;;2.80;99.90;;;;;;4992530;28;20167;-75
2022/12/12 05:36:20;;;;;;;11.40;6.22;;;2.70;99.90;;;;;;4992672;28;20230;-75
2022/12/12 05:38:46;;;;;;;8.93;6.00;;;2.60;99.90;;;;;;4992428;28;20553;-75
2022/12/12 05:41:14;;;;;;;11.10;6.70;;;2.50;99.90;;;;;;4974273;28;20290;-75
2022/12/12 05:43:40;;;;;;;10.68;6.35;;;2.50;99.90;;;;;;4992458;28;20261;-74
2022/12/12 05:46:06;;;;;;;11.43;6.67;;;2.40;99.90;;;;;;5009532;28;20195;-75
2022/12/12 05:48:31;;;;;;;10.57;6.53;;;2.20;99.90;;;;;;4974942;28;20219;-75
2022/12/12 05:51:00;;;;;;;10.87;6.47;;;2.10;99.90;;;;;;4991297;28;20602;-75
2022/12/12 05:53:27;;;;;;;9.38;6.90;;;2.00;99.90;;;;;;4974320;28;20586;-74
2022/12/12 05:55:53;;;;;;;10.65;6.07;;;2.00;99.90;;;;;;4974375;28;20258;-75
2022/12/12 05:58:19;;;;;;;9.17;6.00;;;1.90;99.90;;;;;;4958457;28;20182;-75
2022/12/12 06:00:48;;;;;;;8.75;6.25;;;1.90;99.90;;;;;;4974072;28;20187;-74
2022/12/12 06:03:15;;;;;;;7.90;5.00;;;1.90;99.90;;;;;;4974400;28;20734;-75
2022/12/12 06:05:41;;;;;;;9.10;6.20;;;1.90;99.90;;;;;;4991693;28;20586;-76
2022/12/12 06:08:06;;;;;;;8.85;5.03;;;2.00;99.90;;;;;;5007099;28;20176;-77
2022/12/12 06:10:32;;;;;;;8.60;5.57;;;2.00;99.90;;;;;;4991680;28;20206;-76
2022/12/12 06:12:58;;;;;;;7.80;4.90;;;2.10;99.90;;;;;;4990149;28;20206;-76
2022/12/12 06:15:23;;;;;;;7.77;6.03;;;2.10;99.90;;;;;;4974157;28;20290;-76
2022/12/12 06:17:52;;;;;;;5.97;4.20;;;2.10;99.90;;;;;;4974579;28;20555;-75
2022/12/12 06:20:18;;;;;;;7.88;4.60;;;2.20;99.90;;;;;;5006697;28;20178;-78
2022/12/12 06:22:45;;;;;;;8.07;5.20;;;2.20;99.90;;;;;;4993323;28;20329;-76
2022/12/12 06:25:11;;;;;;;7.43;4.82;;;2.20;99.90;;;;;;4975099;28;20250;-77
2022/12/12 06:27:37;;;;;;;9.13;5.65;;;2.30;99.90;;;;;;4991347;28;20179;-77
2022/12/12 06:30:04;;;;;;;8.10;4.70;;;2.30;99.90;;;;;;4973635;28;20198;-77
2022/12/12 06:32:30;;;;;;;8.35;5.32;;;2.30;99.90;;;;;;4974328;28;20829;-77
2022/12/12 06:34:56;;;;;;;9.07;4.97;;;2.30;99.90;;;;;;4973908;28;20380;-77
2022/12/12 06:37:22;;;;;;;6.80;5.50;;;2.30;99.90;;;;;;4990557;28;20760;-77
2022/12/12 06:39:48;;;;;;;6.88;4.53;;;2.30;99.90;;;;;;4991001;28;20207;-76
2022/12/12 06:42:14;;;;;;;7.90;5.97;;;2.40;99.90;;;;;;4973758;28;20662;-76
2022/12/12 06:44:40;;;;;;;7.97;5.40;;;2.40;99.90;;;;;;4973720;28;20673;-76
2022/12/12 06:47:06;;;;;;;8.27;4.50;;;2.30;99.90;;;;;;4991385;28;20259;-76
2022/12/12 06:49:31;;;;;;;8.93;5.60;;;2.30;99.90;;;;;;4972968;28;20199;-76
2022/12/12 06:51:57;;;;;;;10.57;6.27;;;2.20;99.90;;;;;;4989542;28;20505;-75
2022/12/12 06:54:23;;;;;;;10.23;6.80;;;2.10;99.90;;;;;;4973668;28;20179;-76
2022/12/12 06:56:48;;;;;;;13.00;7.57;;;2.00;99.90;;;;;;4973557;28;20191;-75
2022/12/12 06:59:15;;;;;;;8.00;5.77;;;1.90;99.90;;;;;;4989315;28;20654;-76
2022/12/12 07:01:41;;;;;;;10.30;6.30;;;1.80;99.90;;;;;;4989313;28;20186;-76
2022/12/12 07:04:06;;;;;;;7.53;5.43;;;1.80;99.90;;;;;;5000595;28;20605;-76
2022/12/12 07:06:32;;;;;;;7.97;5.40;;;1.80;99.90;;;;;;5009214;28;20229;-76
2022/12/12 07:08:59;;;;;;;7.77;5.00;;;1.80;99.90;;;;;;4993287;28;20201;-76
2022/12/12 07:11:26;;;;;;;8.30;5.70;;;1.80;99.90;;;;;;5009015;28;21189;-76
2022/12/12 07:13:54;;;;;;;7.10;5.90;;;1.80;99.90;;;;;;5009154;28;20187;-76
2022/12/12 07:16:19;;;;;;;7.82;5.57;;;1.80;99.90;;;;;;5009509;28;20202;-76
2022/12/12 07:18:46;;;;;;;7.80;6.23;;;1.90;99.90;;;;;;4992164;28;20171;-76
2022/12/12 07:21:14;;;;;;;7.97;5.35;;;1.90;99.90;;;;;;5008856;28;20196;-77
2022/12/12 07:23:40;;;;;;;10.93;5.80;;;2.00;99.90;;;;;;4992816;28;20182;-77
2022/12/12 07:26:11;;;;;;;12.35;6.20;;;2.10;99.90;;;;;;4992385;28;20289;-77
2022/12/12 07:28:40;;;;;;;10.10;7.28;;;2.10;99.90;;;;;;5010073;28;20579;-77
2022/12/12 07:31:15;;;;;;;12.77;6.68;;;2.20;99.90;;;;;;4984973;28;20174;-77
2022/12/12 07:33:42;;;;;;;7.47;5.25;;;2.20;99.90;;;;;;4992349;28;20260;-76
2022/12/12 07:36:08;;;;;;;7.40;5.70;;;2.30;99.90;;;;;;4992494;28;20205;-77
2022/12/12 07:38:35;;;;;;;10.30;6.10;;;2.30;99.90;;;;;;4995901;28;20178;-76
2022/12/12 07:41:03;;;;;;;7.65;5.40;;;2.30;99.90;;;;;;5008751;28;20265;-76
2022/12/12 07:43:29;;;;;;;7.68;5.43;;;2.30;99.90;;;;;;4991884;28;20182;-76
2022/12/12 07:45:55;;;;;;;8.40;5.37;;;2.30;99.90;;;;;;4991985;28;20194;-76
2022/12/12 07:48:20;;;;;;;7.87;5.40;;;2.30;99.90;;;;;;4978549;28;20182;-77
2022/12/12 07:50:46;;;;;;;7.37;4.73;;;2.30;99.90;;;;;;5024607;28;20701;-75
2022/12/12 07:53:12;;;;;;;8.27;5.13;;;2.20;99.90;;;;;;4991822;28;20167;-76
2022/12/12 07:55:39;;;;;;;9.95;5.50;;;2.30;99.90;;;;;;5025006;28;20193;-76
2022/12/12 07:58:05;;;;;;;7.97;5.55;;;2.30;99.90;;;;;;5009957;28;20162;-75
2022/12/12 08:00:31;;;;;;;8.00;5.45;;;2.30;99.90;;;;;;5023996;28;20233;-75
2022/12/12 08:02:57;;;;;;;9.57;6.47;;;2.30;99.90;;;;;;5009322;28;20166;-77
2022/12/12 08:05:22;;;;;;;7.70;5.00;;;2.40;99.90;;;;;;4991799;28;20198;-76
2022/12/12 08:07:48;;;;;;;8.70;5.30;;;2.40;99.90;;;;;;5025054;28;20182;-76
2022/12/12 08:10:14;;;;;;;7.55;4.90;;;2.40;99.90;;;;;;4993289;28;20201;-76
2022/12/12 08:12:40;;;;;;;7.30;5.50;;;2.40;99.90;;;;;;4995639;28;20196;-76
2022/12/12 08:15:06;;;;;;;10.40;6.40;;;2.40;99.90;;;;;;4983492;28;20217;-76
2022/12/12 08:17:32;;;;;;;8.82;4.60;;;2.40;99.90;;;;;;5014104;28;20162;-76
2022/12/12 08:19:58;;;;;;;7.83;5.47;;;2.40;99.90;;;;;;5013230;28;20177;-76
2022/12/12 08:22:23;;;;;;;9.03;5.60;;;2.40;99.90;;;;;;5013172;28;20188;-76
2022/12/12 08:24:49;;;;;;;8.87;5.70;;;2.40;99.90;;;;;;4995668;28;20718;-76
2022/12/12 08:27:15;;;;;;;9.23;6.47;;;2.50;99.90;;;;;;5024210;28;20661;-76
2022/12/12 08:29:41;;;;;;;9.35;5.90;;;2.50;99.90;;;;;;5015061;28;20311;-77
2022/12/12 08:32:07;;;;;;;9.03;6.33;;;2.50;99.90;;;;;;5023993;28;20320;-76
2022/12/12 08:34:32;;;;;;;9.10;6.70;;;2.50;99.90;;;;;;5025536;28;20588;-76
2022/12/12 08:36:58;;;;;;;9.43;6.73;;;2.60;99.90;;;;;;5015817;28;20212;-76
2022/12/12 08:39:24;;;;;;;9.33;6.33;;;2.50;99.90;;;;;;5015427;28;20696;-76
2022/12/12 08:41:50;;;;;;;8.50;5.97;;;2.50;99.90;;;;;;5032066;28;20189;-76
2022/12/12 08:44:19;;;;;;;9.93;5.82;;;2.40;99.90;;;;;;5033550;28;20165;-76
2022/12/12 08:46:45;;;;;;;8.88;6.35;;;2.30;99.90;;;;;;5016235;28;20202;-76
2022/12/12 08:49:11;;;;;;;9.97;6.80;;;2.30;99.90;;;;;;5031675;28;20252;-76
2022/12/12 08:51:38;;;;;;;9.30;5.70;;;2.30;99.90;;;;;;5017253;28;20572;-76
2022/12/12 08:54:04;;;;;;;8.77;5.38;;;2.30;99.90;;;;;;5018215;28;20540;-76
2022/12/12 08:56:30;;;;;;;11.50;5.10;;;2.30;99.90;;;;;;5015228;28;20284;-76
2022/12/12 08:58:57;;;;;;;8.48;5.55;;;2.30;99.90;;;;;;5035051;28;20564;-75
2022/12/12 09:01:24;;;;;;;8.70;5.30;;;2.30;99.90;;;;;;5015202;28;20717;-77
2022/12/12 09:03:52;;;;;;;10.48;7.57;;;2.40;99.90;;;;;;5015230;28;20623;-77
2022/12/12 09:06:18;;;;;;;9.88;6.68;;;2.40;99.90;;;;;;5032328;28;20204;-75
2022/12/12 09:08:45;;;;;;;10.75;6.90;;;2.40;99.90;;;;;;5032513;28;20177;-75
2022/12/12 09:11:11;;;;;;;9.15;6.70;;;2.30;99.90;;;;;;5015028;28;20215;-76
2022/12/12 09:13:37;;;;;;;12.13;6.93;;;2.30;99.90;;;;;;5014435;28;20196;-77
2022/12/12 09:16:05;;;;;;;9.77;6.78;;;2.40;99.90;;;;;;5032169;28;20221;-77
2022/12/12 09:18:37;;;;;;;10.13;5.70;;;2.40;99.90;;;;;;5016357;28;20170;-77
2022/12/12 09:21:04;;;;;;;9.75;5.40;;;2.50;99.90;;;;;;5030996;28;20213;-77
2022/12/12 09:23:30;;;;;;;10.45;5.95;;;2.50;99.90;;;;;;5014265;28;20277;-76
2022/12/12 09:25:56;;;;;;;10.00;6.03;;;2.60;99.90;;;;;;5013684;28;20669;-76
2022/12/12 09:28:24;;;;;;;12.20;7.63;;;2.60;99.90;;;;;;4993642;28;20266;-76
2022/12/12 09:34:38;;;;;;;10.52;6.63;;;2.60;99.90;;;;;;5020816;28;20175;-76
2022/12/12 09:37:04;;;;;;;8.83;5.93;;;2.70;99.90;;;;;;4992522;28;20222;-76
2022/12/12 09:39:30;;;;;;;13.30;7.95;;;2.60;99.90;;;;;;5019583;28;20589;-76
2022/12/12 09:41:57;;;;;;;11.53;7.43;;;2.60;99.90;;;;;;4993289;28;20241;-76
2022/12/12 09:44:25;;;;;;;9.23;6.40;;;2.60;99.90;;;;;;4992343;28;20589;-76
2022/12/12 09:47:04;;;;;;;12.27;6.57;;;2.60;99.90;;;;;;5018581;28;20194;-76
2022/12/12 09:49:38;;;;;;;9.43;5.65;;;2.60;99.90;;;;;;5023922;28;20285;-75
2022/12/12 09:52:06;;;;;;;8.05;5.95;;;2.70;99.90;;;;;;4999357;28;20170;-76
2022/12/12 09:54:32;;;;;;;9.27;5.00;;;2.80;99.90;;;;;;5011677;28;20273;-76
2022/12/12 09:57:05;;;;;;;7.20;5.77;;;2.90;99.90;;;;;;5019351;28;20265;-75
2022/12/12 09:59:53;;;;;;;8.20;5.13;;;2.90;99.90;;;;;;4994587;28;20584;-76
2022/12/12 10:03:00;;;;;;;8.68;6.55;;;3.00;99.90;;;;;;5031380;28;20172;-76
2022/12/12 10:06:06;;;;;;;10.35;6.72;;;3.00;99.90;;;;;;5010761;28;20221;-76
2022/12/12 10:09:02;;;;;;;11.68;5.82;;;3.00;99.90;;;;;;4995147;28;20542;-75
2022/12/12 10:11:53;;;;;;;14.73;6.88;;;3.10;99.90;;;;;;5010372;28;20722;-75
2022/12/12 10:14:33;;;;;;;10.45;6.70;;;3.00;99.90;;;;;;5002464;28;20647;-76
2022/12/12 10:17:04;;;;;;;12.45;7.18;;;3.10;99.90;;;;;;5001625;28;20170;-75
2022/12/12 10:19:34;;;;;;;9.93;6.20;;;3.10;99.90;;;;;;4996264;28;20261;-76
2022/12/12 10:22:07;;;;;;;11.30;7.13;;;3.10;99.90;;;;;;5000291;28;20177;-76
2022/12/12 10:24:43;;;;;;;11.15;8.07;;;3.20;99.90;;;;;;5019632;28;20175;-75
2022/12/12 10:27:11;;;;;;;9.15;7.03;;;3.20;99.90;;;;;;4993526;28;20178;-76
2022/12/12 10:29:59;;;;;;;11.23;7.43;;;3.30;99.90;;;;;;5008859;28;20210;-75
2022/12/12 10:32:31;;;;;;;13.32;8.93;;;3.30;99.90;;;;;;4973302;28;20186;-76
2022/12/12 10:35:08;;;;;;;16.33;11.10;;;3.30;99.90;;;;;;5006571;28;20249;-76
2022/12/12 10:37:54;;;;;;;12.82;9.48;;;3.40;99.90;;;;;;4982649;28;20178;-76
2022/12/12 10:40:51;;;;;;;13.65;9.25;;;3.40;99.90;;;;;;4993540;28;20241;-76
2022/12/12 10:43:18;;;;;;;11.45;7.53;;;3.40;99.90;;;;;;4978390;28;20193;-77
2022/12/12 10:45:47;;;;;;;16.73;11.23;;;3.50;99.90;;;;;;4994524;28;20185;-76
2022/12/12 10:48:13;;;;;;;17.30;11.73;;;3.50;99.90;;;;;;5009100;28;20186;-76
2022/12/12 10:50:50;;;;;;;16.67;10.13;;;3.60;99.90;;;;;;5008935;28;20257;-76
2022/12/12 10:53:16;;;;;;;17.63;10.73;;;3.60;99.90;;;;;;4991498;28;20577;-76
2022/12/12 10:56:01;;;;;;;16.30;10.02;;;3.60;99.90;;;;;;5009015;28;20186;-76
2022/12/12 10:58:38;;;;;;;13.40;9.82;;;3.60;99.90;;;;;;4993007;28;20688;-76
2022/12/12 11:01:17;;;;;;;11.40;8.60;;;3.60;99.90;;;;;;4992985;28;20182;-76
2022/12/12 11:03:51;;;;;;;13.68;9.77;;;3.70;99.90;;;;;;4993052;28;20181;-76
2022/12/12 11:06:27;;;;;;;11.73;9.20;;;3.70;99.90;;;;;;5009112;28;20535;-76
2022/12/12 11:08:59;;;;;;;12.35;8.65;;;3.70;99.90;;;;;;4992888;28;20812;-76
2022/12/12 11:11:27;;;;;;;12.85;8.57;;;3.80;99.90;;;;;;4991744;28;20175;-76
2022/12/12 11:14:01;;;;;;;9.50;6.88;;;3.80;99.90;;;;;;5010868;28;20225;-73
2022/12/12 11:16:43;;;;;;;12.18;8.45;;;3.80;99.90;;;;;;4992437;28;20276;-73
2022/12/12 11:19:17;;;;;;;11.65;7.68;;;3.70;99.90;;;;;;4993015;28;20201;-72
2022/12/12 11:21:45;;;;;;;15.45;10.65;;;3.80;99.90;;;;;;4963083;28;20228;-72
2022/12/12 11:24:17;;;;;;;12.70;8.80;;;3.80;99.90;;;;;;5010489;28;20180;-73
2022/12/12 11:26:59;;;;;;;14.82;9.43;;;3.80;99.90;;;;;;4992181;28;20190;-73
2022/12/12 11:29:33;;;;;;;12.63;8.20;;;3.90;99.90;;;;;;4992733;28;20674;-75
2022/12/12 11:32:00;;;;;;;10.43;7.13;;;3.90;99.90;;;;;;4991341;28;20165;-72
2022/12/12 11:34:29;;;;;;;11.18;8.02;;;3.90;99.90;;;;;;4991948;28;20185;-74
2022/12/12 11:36:57;;;;;;;13.00;7.45;;;3.90;99.90;;;;;;5010160;28;20202;-73
2022/12/12 11:39:49;;;;;;;11.70;7.60;;;3.90;99.90;;;;;;5008671;28;20237;-74
2022/12/12 11:42:18;;;;;;;15.95;9.75;;;3.90;99.90;;;;;;5005531;28;20186;-72
2022/12/12 11:44:45;;;;;;;11.90;8.02;;;4.00;99.90;;;;;;5009120;28;20244;-73
2022/12/12 11:47:44;;;;;;;11.82;7.82;;;4.00;99.90;;;;;;4992966;28;20202;-77
2022/12/12 11:50:28;;;;;;;13.95;8.80;;;4.10;99.90;;;;;;4988205;28;20274;-77
2022/12/12 11:52:57;;;;;;;10.68;7.70;;;4.10;99.90;;;;;;4991698;28;20174;-77
2022/12/12 11:55:56;;;;;;;11.18;8.20;;;4.10;99.90;;;;;;4992566;28;20186;-77
2022/12/12 11:58:30;;;;;;;10.38;7.18;;;4.10;99.90;;;;;;4997148;28;20193;-77
2022/12/12 12:01:09;;;;;;;13.85;8.75;;;4.20;99.90;;;;;;5025539;28;20183;-77
2022/12/12 12:04:10;;;;;;;15.63;8.95;;;4.10;99.90;;;;;;5016152;28;20177;-73
2022/12/12 12:06:44;;;;;;;9.77;7.30;;;4.20;99.90;;;;;;4965265;28;20200;-73
2022/12/12 12:09:39;;;;;;;13.75;7.13;;;4.20;99.90;;;;;;5011118;28;20206;-73
2022/12/12 12:12:16;;;;;;;9.50;7.28;;;4.20;99.90;;;;;;5009021;28;20177;-73
2022/12/12 12:15:20;;;;;;;11.60;8.88;;;4.20;99.90;;;;;;5009012;28;20328;-73
2022/12/12 12:17:59;;;;;;;11.48;8.40;;;4.20;99.90;;;;;;4962092;28;20177;-73
2022/12/12 12:20:53;;;;;;;11.05;7.80;;;4.20;99.90;;;;;;4992053;28;20178;-73
2022/12/12 12:23:29;;;;;;;10.50;6.40;;;4.20;99.90;;;;;;4990992;28;20167;-73
2022/12/12 12:26:07;;;;;;;8.63;7.65;;;4.20;99.90;;;;;;5008600;28;20205;-73
2022/12/12 12:28:32;;;;;;;9.02;7.15;;;4.30;99.90;;;;;;4990327;28;20182;-73
2022/12/12 12:31:01;;;;;;;11.03;7.77;;;4.30;99.90;;;;;;5017563;28;20293;-73
2022/12/12 12:33:33;;;;;;;16.75;11.13;;;4.40;99.90;;;;;;4991419;28;20182;-73
2022/12/12 12:36:21;;;;;;;14.07;9.60;;;4.40;99.90;;;;;;4995355;28;20187;-73
2022/12/12 12:39:15;;;;;;;13.40;10.05;;;4.30;99.90;;;;;;5006928;28;20174;-73
2022/12/12 12:42:13;;;;;;;15.55;10.32;;;4.30;99.90;;;;;;5026336;28;20205;-73
2022/12/12 12:44:48;;;;;;;13.25;10.05;;;4.30;99.90;;;;;;5009852;28;20211;-73
2022/12/12 12:47:49;;;;;;;18.38;11.23;;;4.20;99.90;;;;;;5010770;28;20182;-73
2022/12/12 12:50:20;;;;;;;11.57;7.65;;;4.30;99.90;;;;;;5010065;28;20206;-73
2022/12/12 12:53:06;;;;;;;11.52;8.75;;;4.30;99.90;;;;;;4989112;28;20188;-73
2022/12/12 12:55:44;;;;;;;14.75;9.25;;;4.30;99.90;;;;;;4993374;28;20272;-73
2022/12/12 12:58:25;;;;;;;11.05;7.97;;;4.30;99.90;;;;;;5014270;28;20181;-73
2022/12/12 13:01:00;;;;;;;14.90;9.23;;;4.30;99.90;;;;;;4986733;28;20185;-73
2022/12/12 13:03:35;;;;;;;13.05;9.50;;;4.30;99.90;;;;;;5013662;28;20174;-74
2022/12/12 13:06:07;;;;;;;11.40;9.05;;;4.30;99.90;;;;;;5014270;28;20284;-73
2022/12/12 13:09:00;;;;;;;14.38;10.75;;;4.40;99.90;;;;;;5013693;28;20233;-73
2022/12/12 13:11:39;;;;;;;12.38;8.98;;;4.30;99.90;;;;;;4994218;28;20185;-72
2022/12/12 13:14:34;;;;;;;15.35;10.93;;;4.40;99.90;;;;;;5015036;28;20189;-73
2022/12/12 13:17:05;;;;;;;11.63;8.43;;;4.30;99.90;;;;;;4994200;28;20170;-73
2022/12/12 13:19:36;;;;;;;12.90;8.30;;;4.40;99.90;;;;;;4994674;28;20666;-73
2022/12/12 13:22:13;;;;;;;12.38;8.82;;;4.40;99.90;;;;;;4976786;28;20209;-73
2022/12/12 13:25:04;;;;;;;11.07;8.50;;;4.40;99.90;;;;;;5010327;28;20738;-73
2022/12/12 13:27:53;;;;;;;14.02;9.93;;;4.40;99.90;;;;;;4995938;28;20181;-73
2022/12/12 13:30:47;;;;;;;13.80;9.30;;;4.40;99.90;;;;;;5011078;28;20202;-74
2022/12/12 13:33:43;;;;;;;13.32;8.82;;;4.40;99.90;;;;;;4996670;28;20185;-76
2022/12/12 13:36:21;;;;;;;13.00;9.38;;;4.40;99.90;;;;;;4991361;28;20197;-76
2022/12/12 13:38:54;;;;;;;10.90;8.00;;;4.40;99.90;;;;;;5036661;28;20532;-75
2022/12/12 13:41:20;;;;;;;18.20;9.93;;;4.40;99.90;;;;;;5025600;28;20181;-77